createdAt,value
2019-03-27T00:00:19.809Z,10
2019-03-27T00:10:28.088Z,10
2019-03-27T00:15:54.473Z,8
2019-03-27T00:37:09.676Z,8
2019-03-27T00:47:17.074Z,8
2019-03-27T00:57:23.068Z,8
2019-03-27T01:07:30.038Z,9
2019-03-27T01:17:43.859Z,9
2019-03-27T01:27:51.807Z,10
2019-03-27T01:38:00.930Z,9
2019-03-27T01:48:08.255Z,9
2019-03-27T01:58:15.743Z,7
2019-03-27T02:08:24.025Z,10
2019-03-27T02:16:40.255Z,9
2019-03-27T02:26:45.575Z,9
2019-03-27T02:33:00.763Z,10
2019-03-27T02:43:08.737Z,9
2019-03-27T02:53:16.843Z,8
2019-03-27T03:03:23.901Z,8
2019-03-27T03:13:33.647Z,10
2019-03-27T03:23:42.053Z,11
2019-03-27T03:33:50.027Z,10
2019-03-27T03:43:59.010Z,10
2019-03-27T03:54:09.035Z,8
2019-03-27T04:04:20.274Z,10
2019-03-27T04:14:26.171Z,10
2019-03-27T04:24:35.042Z,8
2019-03-27T04:26:45.320Z,8
2019-03-27T04:36:53.959Z,9
2019-03-27T04:47:03.610Z,9
2019-03-27T04:57:11.833Z,9
2019-03-27T05:07:15.724Z,11
2019-03-27T05:17:23.596Z,9
2019-03-27T05:27:31.078Z,13
2019-03-27T05:37:38.054Z,8
2019-03-27T05:47:58.540Z,9
2019-03-27T05:48:39.424Z,8
2019-03-27T05:58:45.005Z,10
2019-03-27T06:08:52.294Z,9
2019-03-27T06:18:57.808Z,11
2019-03-27T06:29:07.244Z,12
2019-03-27T06:39:11.701Z,9
2019-03-27T06:49:19.037Z,10
2019-03-27T06:59:29.165Z,9
2019-03-27T07:04:44.685Z,10
2019-03-27T07:12:58.112Z,10
2019-03-27T07:19:13.337Z,15
2019-03-27T07:29:19.972Z,17
2019-03-27T07:39:26.546Z,19
2019-03-27T07:49:34.306Z,21
2019-03-27T07:55:53.463Z,20
2019-03-27T08:05:56.047Z,27
2019-03-27T08:16:04.646Z,23
2019-03-27T08:26:12.672Z,22
2019-03-27T08:36:21.255Z,28
2019-03-27T08:46:30.970Z,20
2019-03-27T08:56:37.391Z,24
2019-03-27T09:06:46.387Z,23
2019-03-27T09:16:53.024Z,22
2019-03-27T09:20:09.028Z,21
2019-03-27T09:30:14.043Z,22
2019-03-27T09:40:24.627Z,25
2019-03-27T09:50:33.235Z,23
2019-03-27T09:56:59.143Z,21
2019-03-27T10:07:05.799Z,23
2019-03-27T10:17:12.791Z,22
2019-03-27T10:19:24.738Z,24
2019-03-27T10:20:37.711Z,22
2019-03-27T10:30:42.250Z,22
2019-03-27T10:40:49.487Z,21
2019-03-27T10:50:59.575Z,27
2019-03-27T11:01:08.416Z,24
2019-03-27T11:03:18.903Z,18
2019-03-27T11:13:24.010Z,21
2019-03-27T11:19:41.778Z,21
2019-03-27T11:29:45.737Z,19
2019-03-27T11:39:59.178Z,19
2019-03-27T11:50:02.617Z,19
2019-03-27T11:51:25.589Z,18
2019-03-27T11:56:39.714Z,20
2019-03-27T12:06:44.673Z,21
2019-03-27T12:16:51.874Z,19
2019-03-27T12:26:58.429Z,17
2019-03-27T12:37:05.653Z,17
2019-03-27T12:39:32.922Z,17
2019-03-27T12:49:40.977Z,18
2019-03-27T12:51:53.412Z,17
2019-03-27T13:01:57.250Z,17
2019-03-27T13:12:09.423Z,14
2019-03-27T13:22:14.194Z,14
2019-03-27T13:32:25.416Z,15
2019-03-27T13:42:35.528Z,15
2019-03-27T13:47:52.205Z,13
2019-03-27T13:57:56.214Z,23
2019-03-27T14:04:23.430Z,15
2019-03-27T14:14:51.584Z,12
2019-03-27T14:18:33.878Z,12
2019-03-27T14:22:44.249Z,11
2019-03-27T14:32:48.708Z,16
2019-03-27T14:39:03.881Z,12
2019-03-27T14:42:17.129Z,32
2019-03-27T14:52:20.607Z,12
2019-03-27T15:02:27.822Z,23
2019-03-27T15:05:39.591Z,17
2019-03-27T15:15:50.516Z,9
2019-03-27T15:26:00.015Z,9
2019-03-27T15:36:07.254Z,11
2019-03-27T15:46:13.703Z,13
2019-03-27T15:51:38.310Z,12
2019-03-27T16:01:44.549Z,11
2019-03-27T16:08:21.974Z,11
2019-03-27T16:17:47.154Z,12
2019-03-27T16:27:53.978Z,13
2019-03-27T16:38:00.071Z,10
2019-03-27T16:48:08.118Z,16
2019-03-27T16:54:25.202Z,14
2019-03-27T16:58:35.742Z,16
2019-03-27T17:08:41.674Z,9
2019-03-27T17:18:47.820Z,14
2019-03-27T17:25:04.083Z,15
2019-03-27T17:35:12.081Z,13
2019-03-27T17:44:32.723Z,12
2019-03-27T17:54:59.660Z,11
2019-03-27T18:05:05.355Z,16
2019-03-27T18:15:12.639Z,10
2019-03-27T18:25:20.996Z,12
2019-03-27T18:35:27.843Z,23
2019-03-27T18:45:38.222Z,12
2019-03-27T18:55:59.909Z,16
2019-03-27T19:02:15.946Z,15
2019-03-27T19:12:20.454Z,16
2019-03-27T19:22:26.020Z,21
2019-03-27T19:32:35.162Z,22
2019-03-27T19:42:41.611Z,21
2019-03-27T19:52:49.240Z,14
2019-03-27T19:55:01.394Z,18
2019-03-27T20:05:09.083Z,14
2019-03-27T20:15:16.390Z,17
2019-03-27T20:25:25.086Z,19
2019-03-27T20:35:29.929Z,13
2019-03-27T20:45:37.612Z,20
2019-03-27T20:55:43.018Z,18
2019-03-27T21:05:48.938Z,18
2019-03-27T21:15:56.759Z,18
2019-03-27T21:26:04.073Z,16
2019-03-27T21:36:09.172Z,15
2019-03-27T21:46:14.314Z,17
2019-03-27T21:53:38.727Z,15
2019-03-27T21:56:20.546Z,17
2019-03-27T22:06:26.374Z,14
2019-03-27T22:16:31.918Z,13
2019-03-27T22:26:39.159Z,17
2019-03-27T22:36:44.534Z,16
2019-03-27T22:46:51.317Z,14
2019-03-27T22:56:59.592Z,21
2019-03-27T23:07:05.143Z,16
2019-03-27T23:17:13.009Z,20
2019-03-27T23:27:20.622Z,14
2019-03-27T23:37:27.751Z,11
2019-03-27T23:47:34.366Z,11
2019-03-27T23:56:50.476Z,11
